Time;durP1;ratioP1;P1;durP2;ratioP2;P2;SDS_P1;SDS_P2;PMS_P1;PMS_P2;Temp;Humidity;BMP_temperature;BMP_pressure;BME280_temperature;BME280_humidity;BME280_pressure;Samples;Min_cycle;Max_cycle;Signal;HPM_P1;HPM_P2
2023/02/18 00:00:18;;;;;;;1.80;1.15;;;;;;;9.69;100.00;96656.63;1034392;28;20461;-69
2023/02/18 00:00:49;;;;;;;1.48;1.10;;;;;;;9.67;100.00;96656.09;1030437;28;20049;-69
2023/02/18 00:01:19;;;;;;;2.83;1.30;;;;;;;9.67;100.00;96656.88;1030996;28;20360;-71
2023/02/18 00:01:50;;;;;;;3.22;0.98;;;;;;;9.70;100.00;96657.47;1026616;28;20508;-70
2023/02/18 00:02:20;;;;;;;3.42;1.20;;;;;;;9.68;100.00;96660.28;1030314;28;20030;-69
2023/02/18 00:02:51;;;;;;;1.67;0.90;;;;;;;9.71;100.00;96661.66;1026268;28;20440;-70
2023/02/18 00:03:21;;;;;;;2.50;1.10;;;;;;;9.66;100.00;96636.97;1025232;28;20027;-69
2023/02/18 00:03:52;;;;;;;1.77;1.20;;;;;;;9.76;100.00;96648.63;1021665;28;20540;-69
2023/02/18 00:04:22;;;;;;;1.95;1.20;;;;;;;9.79;100.00;96656.03;1026132;28;20495;-68
2023/02/18 00:04:53;;;;;;;1.23;0.93;;;;;;;9.73;100.00;96649.13;1031986;28;20183;-71
2023/02/18 00:05:24;;;;;;;0.98;0.88;;;;;;;9.74;100.00;96648.88;1025633;28;20054;-70
2023/02/18 00:05:55;;;;;;;5.03;1.80;;;;;;;9.70;100.00;96652.22;1024213;28;20266;-70
2023/02/18 00:06:27;;;;;;;2.35;1.00;;;;;;;9.75;100.00;96647.06;1038148;28;20025;-69
2023/02/18 00:06:58;;;;;;;2.13;1.23;;;;;;;9.78;100.00;96652.63;1042309;28;20459;-71
2023/02/18 00:07:33;;;;;;;1.40;1.10;;;;;;;9.80;100.00;96657.66;1034076;28;20268;-69
2023/02/18 00:08:03;;;;;;;1.52;1.17;;;;;;;9.80;100.00;96652.41;1026264;28;20469;-69
2023/02/18 00:08:34;;;;;;;3.17;1.40;;;;;;;9.77;100.00;96653.66;1030167;28;20385;-71
2023/02/18 00:09:05;;;;;;;1.38;0.88;;;;;;;9.76;100.00;96646.00;1030884;28;20045;-69
2023/02/18 00:09:37;;;;;;;2.85;1.17;;;;;;;9.80;100.00;96641.91;1029542;28;20138;-70
2023/02/18 00:10:13;;;;;;;2.20;1.13;;;;;;;9.80;100.00;96647.94;1029985;28;20026;-69
2023/02/18 00:10:44;;;;;;;1.75;0.90;;;;;;;9.71;100.00;96638.06;1034397;28;20268;-71
2023/02/18 00:11:15;;;;;;;1.25;1.00;;;;;;;9.84;100.00;96643.03;1026032;28;20725;-69
2023/02/18 00:11:45;;;;;;;2.17;1.15;;;;;;;9.78;100.00;96647.38;1026067;28;20059;-69
2023/02/18 00:12:16;;;;;;;2.25;0.95;;;;;;;9.78;100.00;96649.22;1018125;29;20137;-71
2023/02/18 00:12:46;;;;;;;3.47;1.23;;;;;;;9.78;100.00;96643.97;1018444;29;20040;-70
2023/02/18 00:13:17;;;;;;;1.20;0.90;;;;;;;9.81;100.00;96648.75;1023407;28;20441;-68
2023/02/18 00:13:57;;;;;;;2.03;0.98;;;;;;;9.81;100.00;96646.13;1028608;28;20029;-70
2023/02/18 00:14:28;;;;;;;2.65;1.10;;;;;;;9.83;100.00;96652.72;1035792;28;20030;-69
2023/02/18 00:14:58;;;;;;;1.80;1.15;;;;;;;9.81;100.00;96652.16;1036400;28;20678;-68
2023/02/18 00:15:29;;;;;;;2.92;1.30;;;;;;;9.81;100.00;96649.53;1029864;28;20074;-70
2023/02/18 00:16:01;;;;;;;1.60;1.02;;;;;;;9.80;100.00;96636.69;1031346;28;20038;-70
2023/02/18 00:16:31;;;;;;;2.13;1.00;;;;;;;9.84;100.00;96651.69;1025911;28;20428;-71
2023/02/18 00:17:02;;;;;;;1.08;0.95;;;;;;;9.84;100.00;96648.28;1026200;28;20354;-69
2023/02/18 00:17:32;;;;;;;1.33;1.20;;;;;;;9.81;100.00;96654.00;1030324;28;20054;-70
2023/02/18 00:18:03;;;;;;;3.65;0.98;;;;;;;9.81;100.00;96646.91;1034354;28;20036;-70
2023/02/18 00:18:33;;;;;;;3.22;1.23;;;;;;;9.89;100.00;96645.72;1030005;28;20034;-69
2023/02/18 00:19:05;;;;;;;1.77;0.90;;;;;;;9.86;100.00;96640.97;1026055;28;20484;-69
2023/02/18 00:19:35;;;;;;;0.98;0.88;;;;;;;9.89;100.00;96651.78;1025296;28;20125;-69
2023/02/18 00:20:06;;;;;;;1.65;1.00;;;;;;;9.86;100.00;96652.25;1029516;28;20305;-70
2023/02/18 00:20:38;;;;;;;2.35;1.33;;;;;;;9.89;100.00;96653.59;1030088;28;20543;-71
2023/02/18 00:21:08;;;;;;;1.23;1.00;;;;;;;9.87;100.00;96642.56;1026038;28;20034;-69
2023/02/18 00:21:39;;;;;;;1.00;0.90;;;;;;;9.87;100.00;96653.06;1022052;29;20310;-70
2023/02/18 00:22:09;;;;;;;1.35;1.00;;;;;;;9.65;100.00;96618.84;1022346;28;20504;-69
2023/02/18 00:22:40;;;;;;;1.10;1.00;;;;;;;9.93;100.00;96652.13;1026167;28;20030;-70
2023/02/18 00:23:10;;;;;;;2.40;0.93;;;;;;;9.93;100.00;96646.09;1030286;28;20049;-72
2023/02/18 00:23:41;;;;;;;1.67;0.93;;;;;;;9.90;100.00;96642.09;1025707;28;20037;-69
2023/02/18 00:24:15;;;;;;;2.95;1.00;;;;;;;9.80;100.00;96631.44;1026210;28;20399;-69
2023/02/18 00:24:45;;;;;;;3.28;0.88;;;;;;;9.83;100.00;96638.84;1022184;29;20052;-68
2023/02/18 00:25:16;;;;;;;4.22;1.25;;;;;;;9.90;100.00;96655.22;1030401;28;20280;-69
2023/02/18 00:25:46;;;;;;;1.35;0.95;;;;;;;9.93;100.00;96648.72;1030020;28;20106;-70
2023/02/18 00:26:17;;;;;;;2.58;0.80;;;;;;;9.89;100.00;96641.31;1030293;28;20492;-71
2023/02/18 00:26:50;;;;;;;1.40;0.90;;;;;;;9.82;100.00;96639.84;1029905;28;20034;-69
2023/02/18 00:27:20;;;;;;;1.85;1.13;;;;;;;9.84;100.00;96630.72;1022457;28;20023;-72
2023/02/18 00:27:51;;;;;;;0.80;0.80;;;;;;;9.91;100.00;96644.47;1030062;28;20814;-71
2023/02/18 00:28:21;;;;;;;1.52;1.10;;;;;;;9.85;100.00;96650.66;1030544;28;20030;-68
2023/02/18 00:28:53;;;;;;;1.75;1.00;;;;;;;9.89;100.00;96635.25;1030048;28;20038;-69
2023/02/18 00:29:23;;;;;;;5.68;1.10;;;;;;;9.93;100.00;96643.47;1029543;28;20030;-71
2023/02/18 00:29:53;;;;;;;0.80;0.70;;;;;;;9.93;100.00;96639.00;1026058;28;20303;-69
2023/02/18 00:30:24;;;;;;;1.67;1.17;;;;;;;9.91;100.00;96639.22;1024390;28;20057;-69
2023/02/18 00:30:55;;;;;;;1.40;0.80;;;;;;;9.92;100.00;96655.75;1030465;28;20026;-71
2023/02/18 00:31:29;;;;;;;1.88;0.85;;;;;;;9.92;100.00;96650.50;1030176;28;20037;-69
2023/02/18 00:32:00;;;;;;;1.08;0.80;;;;;;;9.90;100.00;96647.34;1029897;28;20502;-73
2023/02/18 00:32:31;;;;;;;1.02;0.82;;;;;;;9.91;100.00;96646.31;1030356;28;20353;-69
2023/02/18 00:33:01;;;;;;;0.70;0.70;;;;;;;9.91;100.00;96636.59;1030854;28;20129;-68
2023/02/18 00:33:31;;;;;;;1.35;0.82;;;;;;;9.88;100.00;96639.69;1034501;28;20458;-68
2023/02/18 00:34:03;;;;;;;3.83;1.30;;;;;;;9.93;100.00;96640.84;1032291;28;20037;-69
2023/02/18 00:34:33;;;;;;;1.33;0.98;;;;;;;9.90;100.00;96644.72;1022154;28;20125;-69
2023/02/18 00:35:04;;;;;;;1.23;0.98;;;;;;;9.91;100.00;96647.09;1026270;28;20297;-69
2023/02/18 00:35:34;;;;;;;1.35;0.90;;;;;;;9.95;100.00;96644.78;1019068;29;20058;-69
2023/02/18 00:36:07;;;;;;;1.65;0.93;;;;;;;9.94;100.00;96642.44;1017393;28;20531;-71
2023/02/18 00:36:37;;;;;;;3.28;1.50;;;;;;;9.85;100.00;96629.69;1034356;28;20449;-69
2023/02/18 00:37:08;;;;;;;2.55;1.00;;;;;;;9.90;100.00;96642.09;1024559;28;20294;-68
2023/02/18 00:37:38;;;;;;;1.20;1.10;;;;;;;9.89;100.00;96645.72;1022293;29;20039;-71
2023/02/18 00:38:09;;;;;;;3.03;0.90;;;;;;;9.87;100.00;96645.19;1021920;29;20039;-71
2023/02/18 00:38:46;;;;;;;2.05;1.05;;;;;;;9.86;100.00;96647.03;1022164;28;20031;-69
2023/02/18 00:39:16;;;;;;;1.92;1.10;;;;;;;9.93;100.00;96646.09;1029904;28;20031;-68
2023/02/18 00:39:47;;;;;;;1.05;0.77;;;;;;;9.90;100.00;96645.50;1029945;28;20261;-69
2023/02/18 00:40:18;;;;;;;1.15;0.93;;;;;;;9.90;100.00;96644.72;1030096;28;20563;-72
2023/02/18 00:40:49;;;;;;;2.20;1.00;;;;;;;9.88;100.00;96629.22;1033324;28;20168;-69
2023/02/18 00:41:20;;;;;;;1.80;0.90;;;;;;;9.87;100.00;96639.94;1033967;28;20273;-71
2023/02/18 00:41:50;;;;;;;0.80;0.80;;;;;;;9.93;100.00;96644.25;1030500;28;20507;-68
2023/02/18 00:42:21;;;;;;;1.60;0.90;;;;;;;9.93;100.00;96644.25;1029830;28;20258;-68
2023/02/18 00:42:51;;;;;;;1.10;0.95;;;;;;;9.89;100.00;96640.50;1030382;28;20506;-72
2023/02/18 00:43:22;;;;;;;0.95;0.60;;;;;;;9.88;100.00;96644.16;1034203;28;20033;-70
2023/02/18 00:43:52;;;;;;;2.90;1.00;;;;;;;9.91;100.00;96644.47;1024605;28;20031;-70
2023/02/18 00:44:23;;;;;;;1.00;0.80;;;;;;;9.94;100.00;96643.22;1033941;28;20343;-69
2023/02/18 00:44:53;;;;;;;2.95;0.70;;;;;;;9.91;100.00;96641.84;1034272;28;20061;-72
2023/02/18 00:45:24;;;;;;;1.90;0.80;;;;;;;9.89;100.00;96656.22;1030053;28;20480;-70
2023/02/18 00:45:54;;;;;;;3.00;1.27;;;;;;;9.90;100.00;96640.28;1034133;28;20101;-69
2023/02/18 00:46:25;;;;;;;0.90;0.90;;;;;;;9.88;100.00;96646.78;1033951;28;20539;-69
2023/02/18 00:46:55;;;;;;;4.03;1.10;;;;;;;9.89;100.00;96645.72;1034169;28;20029;-71
2023/02/18 00:47:26;;;;;;;1.63;0.85;;;;;;;9.85;100.00;96634.13;1034054;28;20040;-69
2023/02/18 00:47:56;;;;;;;1.05;0.70;;;;;;;9.90;100.00;96639.47;1028677;28;20381;-70
2023/02/18 00:48:27;;;;;;;3.05;0.80;;;;;;;9.84;100.00;96638.59;1025684;28;20042;-70
2023/02/18 00:48:57;;;;;;;2.53;1.00;;;;;;;9.89;100.00;96645.72;1024344;28;20062;-70
2023/02/18 00:49:28;;;;;;;1.77;1.20;;;;;;;9.89;100.00;96646.56;1017268;29;20072;-71
2023/02/18 00:49:58;;;;;;;1.17;0.77;;;;;;;9.89;100.00;96637.88;1018582;28;20043;-68
2023/02/18 00:50:29;;;;;;;1.52;0.90;;;;;;;9.84;100.00;96627.31;1025998;28;20108;-69
2023/02/18 00:51:00;;;;;;;1.05;0.95;;;;;;;9.91;100.00;96644.47;1026356;28;20460;-69
2023/02/18 00:51:31;;;;;;;1.35;0.80;;;;;;;9.85;100.00;96618.41;1022101;29;20050;-71
2023/02/18 00:52:01;;;;;;;1.00;1.00;;;;;;;9.90;100.00;96623.75;1022497;29;20377;-68
2023/02/18 00:52:31;;;;;;;1.42;1.15;;;;;;;9.93;100.00;96638.22;1022762;28;20038;-69
2023/02/18 00:53:02;;;;;;;1.13;0.98;;;;;;;9.91;100.00;96627.94;1026438;28;20043;-69
2023/02/18 00:53:33;;;;;;;1.00;0.73;;;;;;;9.87;100.00;96638.13;1030451;28;20474;-70
2023/02/18 00:54:03;;;;;;;4.25;0.90;;;;;;;9.87;100.00;96637.31;1030418;28;20471;-70
2023/02/18 00:54:34;;;;;;;1.90;0.98;;;;;;;9.87;100.00;96647.81;1030165;28;20104;-72
2023/02/18 00:55:04;;;;;;;2.85;1.02;;;;;;;9.86;100.00;96646.22;1029883;28;20408;-70
2023/02/18 00:55:42;;;;;;;1.52;0.90;;;;;;;9.82;100.00;96632.78;1030236;28;20026;-70
2023/02/18 00:56:12;;;;;;;1.95;0.65;;;;;;;9.85;100.00;96644.63;1026502;28;20062;-70
2023/02/18 00:56:43;;;;;;;1.83;0.90;;;;;;;9.76;100.00;96630.28;1030029;28;20268;-71
2023/02/18 00:57:13;;;;;;;2.55;0.93;;;;;;;9.84;100.00;96640.41;1030088;28;20034;-69
2023/02/18 00:57:44;;;;;;;1.25;0.90;;;;;;;9.83;100.00;96642.25;1030199;28;20022;-70
2023/02/18 00:58:14;;;;;;;0.80;0.80;;;;;;;9.80;100.00;96636.69;1037681;28;20401;-69
2023/02/18 00:58:45;;;;;;;2.95;0.85;;;;;;;9.81;100.00;96635.63;1030168;28;20023;-72
2023/02/18 00:59:15;;;;;;;3.75;1.10;;;;;;;9.81;100.00;96633.03;1029648;28;20058;-69
2023/02/18 00:59:46;;;;;;;1.65;0.80;;;;;;;9.81;100.00;96643.50;1029840;28;20014;-70
2023/02/18 01:00:16;;;;;;;1.73;1.00;;;;;;;9.79;100.00;96649.00;1034205;28;20030;-68
2023/02/18 01:00:47;;;;;;;1.23;1.00;;;;;;;9.76;100.00;96636.34;1030313;28;20459;-71
2023/02/18 01:01:18;;;;;;;2.13;0.90;;;;;;;9.81;100.00;96633.03;1026787;28;20691;-71
2023/02/18 01:01:48;;;;;;;2.35;1.50;;;;;;;9.83;100.00;96646.69;1026828;28;20050;-68
2023/02/18 01:02:19;;;;;;;1.50;1.00;;;;;;;9.84;100.00;96643.03;1027190;28;20015;-70
2023/02/18 01:02:52;;;;;;;1.85;1.02;;;;;;;9.85;100.00;96644.63;1027645;28;20542;-70
2023/02/18 01:03:23;;;;;;;1.30;1.00;;;;;;;9.81;100.00;96628.56;1027256;28;20023;-70
2023/02/18 01:03:54;;;;;;;0.98;0.80;;;;;;;9.84;100.00;96646.44;1031176;28;20278;-70
2023/02/18 01:04:24;;;;;;;0.93;0.65;;;;;;;9.87;100.00;96639.94;1031442;28;20728;-70
2023/02/18 01:04:55;;;;;;;4.05;0.75;;;;;;;9.84;100.00;96637.78;1027521;28;20030;-69
2023/02/18 01:05:25;;;;;;;1.17;0.95;;;;;;;9.88;100.00;96646.78;1026636;28;20580;-69
2023/02/18 01:05:56;;;;;;;1.10;0.80;;;;;;;9.83;100.00;96639.63;1022954;29;20090;-71
2023/02/18 01:06:26;;;;;;;1.20;0.93;;;;;;;9.89;100.00;96646.56;1018846;28;20075;-69
2023/02/18 01:06:57;;;;;;;2.78;1.02;;;;;;;9.85;100.00;96655.09;1027045;28;20070;-71
2023/02/18 01:07:27;;;;;;;1.00;0.95;;;;;;;9.75;100.00;96639.97;1030707;28;20723;-69
2023/02/18 01:07:58;;;;;;;1.02;0.93;;;;;;;9.79;100.00;96635.88;1027169;28;20031;-70
2023/02/18 01:08:28;;;;;;;1.58;0.80;;;;;;;9.82;100.00;96643.25;1022172;29;20131;-69
2023/02/18 01:08:59;;;;;;;1.73;0.90;;;;;;;9.82;100.00;96638.00;1023181;29;20019;-70
2023/02/18 01:09:29;;;;;;;1.02;0.90;;;;;;;9.91;100.00;96648.94;1026018;28;20116;-68
2023/02/18 01:09:59;;;;;;;0.98;0.82;;;;;;;9.91;100.00;96648.94;1026904;28;20022;-70
2023/02/18 01:10:30;;;;;;;2.67;1.08;;;;;;;9.85;100.00;96632.31;1035220;28;20081;-72
2023/02/18 01:11:01;;;;;;;3.13;0.90;;;;;;;9.83;100.00;96636.22;1030987;28;20018;-69
2023/02/18 01:11:31;;;;;;;2.10;1.25;;;;;;;9.83;100.00;96637.00;1022462;29;20082;-70
2023/02/18 01:12:02;;;;;;;1.27;0.82;;;;;;;9.88;100.00;96638.91;1018923;29;20031;-69
2023/02/18 01:12:32;;;;;;;4.95;0.95;;;;;;;9.86;100.00;96636.53;1018999;29;20090;-70
2023/02/18 01:13:03;;;;;;;3.00;1.00;;;;;;;9.83;100.00;96641.44;1030924;28;20030;-71
2023/02/18 01:13:33;;;;;;;2.17;1.08;;;;;;;9.86;100.00;96639.16;1026710;28;20019;-70
2023/02/18 01:14:04;;;;;;;2.15;0.95;;;;;;;9.87;100.00;96638.13;1030908;28;20524;-69
2023/02/18 01:14:34;;;;;;;1.65;0.80;;;;;;;9.84;100.00;96643.81;1031308;28;20025;-70
2023/02/18 01:15:05;;;;;;;2.30;1.15;;;;;;;9.83;100.00;96636.22;1038976;28;20033;-72
2023/02/18 01:15:36;;;;;;;1.35;0.93;;;;;;;9.87;100.00;96634.69;1030781;28;20053;-70
2023/02/18 01:16:06;;;;;;;2.50;1.20;;;;;;;9.85;100.00;96636.75;1026875;28;20034;-70
2023/02/18 01:16:37;;;;;;;1.20;0.90;;;;;;;9.83;100.00;96638.84;1014860;29;20028;-70
2023/02/18 01:17:07;;;;;;;2.35;1.30;;;;;;;9.82;100.00;96637.22;1015165;29;20426;-70
2023/02/18 01:17:38;;;;;;;2.22;1.20;;;;;;;9.82;100.00;96637.22;1018956;29;20051;-70
2023/02/18 01:18:09;;;;;;;1.35;1.10;;;;;;;9.79;100.00;96628.03;1022731;28;20572;-70
2023/02/18 01:18:39;;;;;;;2.58;1.10;;;;;;;9.85;100.00;96640.16;1026293;28;20085;-70
2023/02/18 01:19:10;;;;;;;2.35;1.40;;;;;;;9.85;100.00;96642.00;1026752;28;20584;-70
2023/02/18 01:19:40;;;;;;;2.75;0.93;;;;;;;9.84;100.00;96643.03;1033926;28;20025;-71
2023/02/18 01:20:11;;;;;;;1.30;0.93;;;;;;;9.81;100.00;96641.66;1034988;28;20547;-70
2023/02/18 01:20:42;;;;;;;0.85;0.80;;;;;;;9.83;100.00;96644.06;1043150;28;20020;-68
2023/02/18 01:21:12;;;;;;;0.60;0.50;;;;;;;9.83;100.00;96636.22;1038985;28;20036;-71
2023/02/18 01:21:43;;;;;;;1.13;0.98;;;;;;;9.82;100.00;96645.88;1029982;28;20272;-69
2023/02/18 01:22:13;;;;;;;4.13;1.48;;;;;;;9.81;100.00;96635.63;1022760;29;20035;-70
2023/02/18 01:22:44;;;;;;;2.05;1.13;;;;;;;9.80;100.00;96641.91;1026779;28;20027;-69
2023/02/18 01:23:14;;;;;;;3.67;1.50;;;;;;;9.76;100.00;96635.53;1023081;28;20102;-69
2023/02/18 01:23:45;;;;;;;1.80;1.20;;;;;;;9.72;100.00;96635.22;1021856;28;20023;-71
2023/02/18 01:24:15;;;;;;;1.83;1.20;;;;;;;9.68;100.00;96624.41;1023068;29;20131;-70
2023/02/18 01:24:46;;;;;;;1.50;1.00;;;;;;;9.72;100.00;96639.66;1026634;28;20027;-69
2023/02/18 01:25:16;;;;;;;1.52;1.13;;;;;;;9.71;100.00;96638.06;1026695;28;20037;-69
2023/02/18 01:25:47;;;;;;;0.70;0.70;;;;;;;9.74;100.00;96640.22;1030893;28;20018;-73
2023/02/18 01:26:17;;;;;;;1.10;1.00;;;;;;;9.74;100.00;96632.38;1030759;28;20027;-70
2023/02/18 01:26:48;;;;;;;1.25;0.98;;;;;;;9.72;100.00;96635.22;1030727;28;20365;-69
2023/02/18 01:27:18;;;;;;;1.67;1.23;;;;;;;9.67;100.00;96627.28;1030880;28;20022;-69
2023/02/18 01:27:49;;;;;;;1.73;1.10;;;;;;;9.66;100.00;96626.47;1034675;28;20018;-72
2023/02/18 01:28:23;;;;;;;1.83;1.10;;;;;;;9.71;100.00;96630.22;1038996;28;20030;-69
2023/02/18 01:28:54;;;;;;;1.92;1.02;;;;;;;9.72;100.00;96634.41;1030682;28;20395;-69
2023/02/18 01:29:24;;;;;;;1.42;1.15;;;;;;;9.70;100.00;96620.78;1026243;28;20294;-69
2023/02/18 01:29:55;;;;;;;1.33;1.08;;;;;;;9.74;100.00;96632.38;1018908;29;20460;-70
2023/02/18 01:30:25;;;;;;;3.85;0.90;;;;;;;9.68;100.00;96621.00;1021656;28;20023;-66
2023/02/18 01:30:56;;;;;;;1.40;1.05;;;;;;;9.75;100.00;96626.09;1030139;28;20495;-69
2023/02/18 01:31:26;;;;;;;1.40;1.08;;;;;;;9.74;100.00;96617.44;1030664;28;20153;-69
2023/02/18 01:31:57;;;;;;;1.02;0.90;;;;;;;9.67;100.00;96622.81;1022724;28;20019;-72
2023/02/18 01:32:27;;;;;;;1.33;1.00;;;;;;;9.55;100.00;96605.56;1022644;28;20039;-70
2023/02/18 01:32:58;;;;;;;1.45;1.15;;;;;;;9.69;100.00;96622.56;1026827;28;20496;-69
2023/02/18 01:33:28;;;;;;;1.88;0.93;;;;;;;9.66;100.00;96620.44;1022827;28;20315;-70
2023/02/18 01:33:59;;;;;;;1.80;1.20;;;;;;;9.72;100.00;96626.56;1030465;28;20037;-69
2023/02/18 01:34:29;;;;;;;1.55;1.13;;;;;;;9.70;100.00;96621.56;1026488;28;20035;-69
2023/02/18 01:35:01;;;;;;;2.13;1.10;;;;;;;9.71;100.00;96623.16;1022938;28;20031;-68
2023/02/18 01:35:31;;;;;;;1.95;1.02;;;;;;;9.70;100.00;96623.38;1022420;28;20047;-69
2023/02/18 01:36:02;;;;;;;2.28;0.90;;;;;;;9.71;100.00;96628.38;1018701;29;20283;-70
2023/02/18 01:36:33;;;;;;;1.58;1.00;;;;;;;9.72;100.00;96626.56;1019630;28;20195;-70
2023/02/18 01:37:03;;;;;;;1.20;0.90;;;;;;;9.72;100.00;96623.94;1023746;28;20019;-69
2023/02/18 01:37:34;;;;;;;1.58;0.93;;;;;;;9.68;100.00;96621.78;1030769;28;20034;-69
2023/02/18 01:38:04;;;;;;;2.15;1.13;;;;;;;9.66;100.00;96623.06;1027102;28;20064;-69
2023/02/18 01:38:35;;;;;;;2.33;0.88;;;;;;;9.68;100.00;96619.16;1022894;28;20110;-69
2023/02/18 01:39:05;;;;;;;1.55;0.90;;;;;;;9.74;100.00;96624.50;1026565;28;20027;-71
2023/02/18 01:39:36;;;;;;;1.63;1.25;;;;;;;9.71;100.00;96623.16;1026053;28;20026;-69
2023/02/18 01:40:07;;;;;;;1.67;1.20;;;;;;;9.71;100.00;96632.84;1026686;28;20352;-69
2023/02/18 01:40:47;;;;;;;1.20;1.00;;;;;;;9.69;100.00;96625.19;1026839;28;20033;-73
2023/02/18 01:41:17;;;;;;;1.40;0.88;;;;;;;9.67;100.00;96625.44;1028201;28;20265;-70
2023/02/18 01:41:48;;;;;;;3.58;1.35;;;;;;;9.68;100.00;96623.59;1030766;28;20038;-69
2023/02/18 01:42:23;;;;;;;3.13;1.30;;;;;;;9.67;100.00;96630.69;1032820;28;20604;-70
2023/02/18 01:42:54;;;;;;;1.55;1.08;;;;;;;9.64;100.00;96612.81;1030534;28;20031;-69
2023/02/18 01:43:25;;;;;;;1.40;1.17;;;;;;;9.68;100.00;96619.16;1030776;28;20348;-69
2023/02/18 01:44:18;;;;;;;1.45;1.00;;;;;;;9.68;100.00;96629.66;1032088;28;20038;-70
2023/02/18 01:44:49;;;;;;;0.77;0.77;;;;;;;9.68;100.00;96628.84;1030522;28;20436;-70
2023/02/18 01:45:35;;;;;;;2.13;1.05;;;;;;;9.72;100.00;96634.41;1029707;28;20268;-70
2023/02/18 01:46:16;;;;;;;3.70;1.20;;;;;;;9.70;100.00;96626.00;1030443;28;20041;-69
2023/02/18 01:46:46;;;;;;;1.63;0.90;;;;;;;9.69;100.00;96630.44;1030717;28;20287;-69
2023/02/18 01:47:17;;;;;;;2.08;1.33;;;;;;;9.71;100.00;96622.34;1026712;28;20038;-70
2023/02/18 01:47:47;;;;;;;2.65;1.10;;;;;;;9.71;100.00;96627.59;1028979;28;20022;-71
2023/02/18 01:48:31;;;;;;;1.80;1.10;;;;;;;9.71;100.00;96623.16;1022737;29;20488;-69
2023/02/18 01:49:02;;;;;;;1.27;1.10;;;;;;;9.67;100.00;96616.78;1024220;28;20568;-69
2023/02/18 01:49:33;;;;;;;1.23;0.95;;;;;;;9.72;100.00;96629.97;1021538;28;20445;-69
2023/02/18 01:50:04;;;;;;;1.40;1.20;;;;;;;9.78;100.00;96628.25;1020750;29;20075;-70
2023/02/18 01:50:37;;;;;;;1.55;0.98;;;;;;;9.68;100.00;96616.53;1026655;28;20270;-70
2023/02/18 01:51:13;;;;;;;2.15;1.05;;;;;;;9.71;100.00;96627.59;1034193;28;21358;-70
2023/02/18 01:51:47;;;;;;;2.50;1.30;;;;;;;9.69;100.00;96625.19;1031104;28;20261;-69
2023/02/18 01:52:20;;;;;;;1.67;1.00;;;;;;;9.67;100.00;96619.41;1034709;28;20272;-70
2023/02/18 01:52:50;;;;;;;2.33;1.10;;;;;;;9.69;100.00;96625.19;1026711;28;20273;-69
2023/02/18 01:53:25;;;;;;;2.78;1.08;;;;;;;9.70;100.00;96631.25;1033787;28;20998;-69
2023/02/18 01:54:08;;;;;;;1.85;1.10;;;;;;;9.70;100.00;96631.25;1030701;28;20041;-70
2023/02/18 01:54:40;;;;;;;2.15;1.05;;;;;;;9.66;100.00;96608.13;1028906;28;20341;-68
2023/02/18 01:55:10;;;;;;;2.13;1.33;;;;;;;9.64;100.00;96612.81;1026552;28;20287;-69
2023/02/18 01:55:41;;;;;;;1.38;1.10;;;;;;;9.75;100.00;96619.00;1028307;28;20819;-70
2023/02/18 01:56:15;;;;;;;1.45;1.25;;;;;;;9.74;100.00;96627.13;1029019;28;20028;-70
2023/02/18 01:56:48;;;;;;;1.90;1.15;;;;;;;9.70;100.00;96618.16;1030803;28;20522;-69
2023/02/18 01:57:21;;;;;;;1.95;1.02;;;;;;;9.68;100.00;96623.59;1033417;28;20263;-69
2023/02/18 01:57:52;;;;;;;2.13;1.33;;;;;;;9.64;100.00;96622.50;1027773;28;20258;-71
2023/02/18 01:58:22;;;;;;;2.17;1.35;;;;;;;9.67;100.00;96614.16;1022485;29;20273;-69
2023/02/18 01:58:53;;;;;;;1.90;0.95;;;;;;;9.68;100.00;96618.38;1026458;28;20034;-69
2023/02/18 01:59:29;;;;;;;1.30;1.20;;;;;;;9.67;100.00;96616.78;1029809;28;20105;-71
2023/02/18 02:00:03;;;;;;;1.80;1.27;;;;;;;9.68;100.00;96624.41;1034514;28;20285;-71
2023/02/18 02:00:35;;;;;;;2.03;1.10;;;;;;;9.71;100.00;96619.72;1034707;28;20264;-70
2023/02/18 02:01:06;;;;;;;3.95;1.50;;;;;;;9.65;100.00;96619.63;1036159;28;20646;-71
2023/02/18 02:01:36;;;;;;;1.63;1.13;;;;;;;9.70;100.00;96615.53;1037590;28;20268;-69
2023/02/18 02:02:09;;;;;;;1.50;1.08;;;;;;;9.75;100.00;96624.25;1036618;28;20017;-71
2023/02/18 02:02:43;;;;;;;1.77;0.95;;;;;;;9.72;100.00;96618.69;1022537;29;20062;-73
2023/02/18 02:03:13;;;;;;;2.22;0.98;;;;;;;9.74;100.00;96606.94;1022869;28;20326;-70
2023/02/18 02:03:44;;;;;;;1.58;1.13;;;;;;;9.72;100.00;96613.44;1026614;28;20270;-69
2023/02/18 02:04:14;;;;;;;2.70;1.23;;;;;;;9.65;100.00;96611.75;1028257;28;20050;-70
2023/02/18 02:04:45;;;;;;;2.33;0.90;;;;;;;9.62;100.00;96608.81;1039417;28;20414;-69
2023/02/18 02:05:15;;;;;;;1.88;1.15;;;;;;;9.64;100.00;96612.00;1022764;28;20433;-69
2023/02/18 02:05:46;;;;;;;1.50;1.10;;;;;;;9.65;100.00;96608.34;1022889;28;20091;-69
2023/02/18 02:06:18;;;;;;;1.15;0.98;;;;;;;9.65;100.00;96616.22;1026915;28;20493;-71
2023/02/18 02:06:49;;;;;;;1.52;1.10;;;;;;;9.61;100.00;96596.75;1031136;28;20167;-70
2023/02/18 02:07:20;;;;;;;1.30;1.10;;;;;;;9.64;100.00;96614.63;1034756;28;20915;-69
2023/02/18 02:07:51;;;;;;;3.10;1.10;;;;;;;9.64;100.00;96601.53;1027323;28;20022;-69
2023/02/18 02:08:21;;;;;;;2.13;1.23;;;;;;;9.64;100.00;96606.78;1022410;28;20298;-68
2023/02/18 02:08:54;;;;;;;1.40;0.95;;;;;;;9.72;100.00;96609.00;1022598;29;20263;-71
2023/02/18 02:09:26;;;;;;;2.45;1.33;;;;;;;9.71;100.00;96609.25;1026180;28;20026;-69
2023/02/18 02:09:57;;;;;;;1.17;0.80;;;;;;;9.68;100.00;96608.69;1032228;28;20269;-69
2023/02/18 02:10:34;;;;;;;1.65;0.90;;;;;;;9.68;100.00;96613.91;1034847;28;20261;-71
2023/02/18 02:11:15;;;;;;;1.80;1.10;;;;;;;9.63;100.00;96599.94;1025682;28;20019;-69
2023/02/18 02:12:07;;;;;;;1.75;1.20;;;;;;;9.67;100.00;96604.47;1026573;28;20370;-71
2023/02/18 02:12:51;;;;;;;1.17;0.90;;;;;;;9.65;100.00;96606.53;1026932;28;20345;-69
2023/02/18 02:13:44;;;;;;;1.08;0.80;;;;;;;9.65;100.00;96601.28;1028589;28;20276;-70
2023/02/18 02:14:21;;;;;;;0.95;0.90;;;;;;;9.62;100.00;96603.56;1030527;28;20272;-71
2023/02/18 02:15:06;;;;;;;1.35;0.85;;;;;;;9.60;100.00;96610.91;1026631;28;20679;-68
2023/02/18 02:15:48;;;;;;;1.45;0.95;;;;;;;9.60;100.00;96595.19;1026659;28;20262;-69
2023/02/18 02:16:29;;;;;;;1.35;1.10;;;;;;;9.67;100.00;96596.63;1025431;28;20463;-70
2023/02/18 02:17:06;;;;;;;3.55;0.95;;;;;;;9.57;100.00;96599.06;1022274;28;20350;-72
2023/02/18 02:17:58;;;;;;;1.08;0.98;;;;;;;9.66;100.00;96608.13;1026857;28;20274;-71
2023/02/18 02:18:50;;;;;;;2.28;1.33;;;;;;;9.64;100.00;96612.81;1024691;28;20267;-69
2023/02/18 02:19:29;;;;;;;2.28;0.82;;;;;;;9.61;100.00;96602.78;1033917;28;20546;-71
2023/02/18 02:20:24;;;;;;;1.65;0.98;;;;;;;9.62;100.00;96601.78;1035242;28;20385;-71
2023/02/18 02:21:43;;;;;;;1.92;0.90;;;;;;;9.62;100.00;96593.91;1042174;28;20263;-70
2023/02/18 02:22:50;;;;;;;1.80;1.20;;;;;;;9.60;100.00;96598.59;1034220;28;20261;-70
2023/02/18 02:23:46;;;;;;;1.48;0.98;;;;;;;9.59;100.00;96594.38;1031693;28;20662;-69
2023/02/18 02:24:31;;;;;;;1.55;1.20;;;;;;;9.63;100.00;96587.63;1034913;28;20245;-69
2023/02/18 02:25:09;;;;;;;1.77;0.80;;;;;;;9.62;100.00;96596.53;1035743;28;20277;-69
2023/02/18 02:26:16;;;;;;;1.48;1.00;;;;;;;9.63;100.00;96595.50;1035580;28;20420;-71
2023/02/18 02:27:05;;;;;;;1.40;1.00;;;;;;;9.58;100.00;96595.41;1035679;28;20336;-69
2023/02/18 02:28:01;;;;;;;7.05;1.10;;;;;;;9.57;100.00;96601.66;1032196;28;20293;-69
2023/02/18 02:28:44;;;;;;;1.00;0.90;;;;;;;9.57;100.00;96596.44;1023121;29;20271;-69
2023/02/18 02:29:14;;;;;;;1.88;1.10;;;;;;;9.60;100.00;96588.09;1021011;29;20255;-68
2023/02/18 02:30:35;;;;;;;1.92;0.90;;;;;;;9.60;100.00;96595.97;1034958;28;20269;-71
2023/02/18 02:31:31;;;;;;;1.20;1.00;;;;;;;9.61;100.00;96597.53;1025350;28;20033;-69
2023/02/18 02:32:19;;;;;;;1.52;1.08;;;;;;;9.59;100.00;96591.75;1029407;28;20046;-69
2023/02/18 02:33:09;;;;;;;1.90;1.15;;;;;;;9.56;100.00;96594.06;1022995;28;20334;-69
2023/02/18 02:33:54;;;;;;;1.88;1.10;;;;;;;9.50;100.00;96590.53;1014444;29;20276;-69
2023/02/18 02:34:32;;;;;;;1.75;1.00;;;;;;;9.53;100.00;96590.06;1015495;29;20280;-70
2023/02/18 02:35:10;;;;;;;3.90;0.95;;;;;;;9.56;100.00;96594.84;1015275;29;20280;-70
2023/02/18 02:36:03;;;;;;;1.95;1.10;;;;;;;9.53;100.00;96600.56;1015469;29;20367;-69
2023/02/18 02:36:42;;;;;;;1.20;1.10;;;;;;;9.54;100.00;96596.09;1008864;29;20262;-69
2023/02/18 02:37:24;;;;;;;2.10;0.98;;;;;;;9.51;100.00;96586.88;1025744;28;20255;-70